SLT1671 UUDD-UTAA
Flight info
| Callsign | SLT1671 |
|---|---|
| Flight time | 3h 33m |
| Altitude | 35000 |
| Route | TOGMO4Q TOGMO M56 VEVIK Z102 GARDU DCT TIROM A87 MAMED MAM11A |
| Aircraft | B739/M-SDE2E3FGHIRWXY/LB1 |
Departure
| Time | 2026-05-05 16:41 |
|---|---|
| Airport | Domodedovo International Airport (UUDD) |
Arrival
| Time | 2026-05-05 20:14 |
|---|---|
| Airport | Ashgabat International Airport (UTAA) |
| Time | Latitude | Longitude | Altitude | Speed | Heading |
|---|---|---|---|---|---|
| 2026-05-05 15:48 | 55.41507 | 37.90638 | 576 ft | 0 kts | 37° |
| 2026-05-05 16:26 | 55.41484 | 37.90603 | 575 ft | 4 kts | 56° |
| 2026-05-05 16:27 | 55.41477 | 37.90565 | 575 ft | 4 kts | 115° |
| 2026-05-05 16:27 | 55.41472 | 37.90575 | 580 ft | 4 kts | 127° |
| 2026-05-05 16:27 | 55.41458 | 37.90603 | 575 ft | 4 kts | 129° |
| 2026-05-05 16:27 | 55.41442 | 37.90642 | 575 ft | 4 kts | 126° |
| 2026-05-05 16:28 | 55.41430 | 37.90671 | 575 ft | 4 kts | 127° |
| 2026-05-05 16:28 | 55.41427 | 37.90678 | 575 ft | 1 kts | 127° |
| 2026-05-05 16:30 | 55.41424 | 37.90684 | 579 ft | 3 kts | 127° |
| 2026-05-05 16:30 | 55.41403 | 37.90734 | 578 ft | 6 kts | 127° |
| 2026-05-05 16:30 | 55.41373 | 37.90803 | 573 ft | 10 kts | 127° |
| 2026-05-05 16:30 | 55.41318 | 37.90908 | 571 ft | 13 kts | 146° |
| 2026-05-05 16:31 | 55.41241 | 37.90863 | 567 ft | 13 kts | 233° |
| 2026-05-05 16:31 | 55.41189 | 37.90732 | 572 ft | 14 kts | 236° |
| 2026-05-05 16:31 | 55.41137 | 37.90597 | 572 ft | 13 kts | 236° |
| 2026-05-05 16:31 | 55.41087 | 37.90466 | 566 ft | 13 kts | 236° |
| 2026-05-05 16:32 | 55.41043 | 37.90334 | 566 ft | 12 kts | 257° |
| 2026-05-05 16:32 | 55.41028 | 37.90188 | 572 ft | 12 kts | 240° |
| 2026-05-05 16:32 | 55.40982 | 37.90069 | 567 ft | 12 kts | 236° |
| 2026-05-05 16:32 | 55.40937 | 37.89950 | 569 ft | 12 kts | 235° |
| 2026-05-05 16:33 | 55.40891 | 37.89836 | 571 ft | 11 kts | 235° |
| 2026-05-05 16:33 | 55.40848 | 37.89723 | 572 ft | 11 kts | 236° |
| 2026-05-05 16:33 | 55.40801 | 37.89623 | 571 ft | 11 kts | 210° |
| 2026-05-05 16:33 | 55.40744 | 37.89546 | 571 ft | 10 kts | 235° |
| 2026-05-05 16:34 | 55.40704 | 37.89444 | 570 ft | 10 kts | 235° |
| 2026-05-05 16:34 | 55.40657 | 37.89358 | 570 ft | 10 kts | 205° |
| 2026-05-05 16:34 | 55.40595 | 37.89397 | 566 ft | 10 kts | 145° |
| 2026-05-05 16:34 | 55.40540 | 37.89463 | 567 ft | 9 kts | 146° |
| 2026-05-05 16:35 | 55.40486 | 37.89528 | 569 ft | 9 kts | 146° |
| 2026-05-05 16:35 | 55.40434 | 37.89591 | 564 ft | 9 kts | 145° |
| 2026-05-05 16:35 | 55.40383 | 37.89652 | 561 ft | 9 kts | 146° |
| 2026-05-05 16:35 | 55.40332 | 37.89714 | 566 ft | 9 kts | 146° |
| 2026-05-05 16:36 | 55.40281 | 37.89774 | 561 ft | 9 kts | 146° |
| 2026-05-05 16:36 | 55.40232 | 37.89833 | 561 ft | 8 kts | 146° |
| 2026-05-05 16:36 | 55.40179 | 37.89897 | 567 ft | 11 kts | 146° |
| 2026-05-05 16:36 | 55.40112 | 37.89977 | 562 ft | 12 kts | 146° |
| 2026-05-05 16:37 | 55.40043 | 37.90060 | 557 ft | 12 kts | 146° |
| 2026-05-05 16:37 | 55.39976 | 37.90140 | 555 ft | 11 kts | 145° |
| 2026-05-05 16:37 | 55.39912 | 37.90219 | 550 ft | 11 kts | 146° |
| 2026-05-05 16:37 | 55.39848 | 37.90295 | 553 ft | 11 kts | 146° |
| 2026-05-05 16:38 | 55.39787 | 37.90368 | 549 ft | 11 kts | 146° |
| 2026-05-05 16:38 | 55.39727 | 37.90440 | 547 ft | 10 kts | 146° |
| 2026-05-05 16:38 | 55.39669 | 37.90510 | 546 ft | 10 kts | 145° |
| 2026-05-05 16:38 | 55.39606 | 37.90532 | 543 ft | 10 kts | 200° |
| 2026-05-05 16:39 | 55.39586 | 37.90496 | 546 ft | 0 kts | 235° |
| 2026-05-05 16:39 | 55.39583 | 37.90487 | 543 ft | 4 kts | 235° |
| 2026-05-05 16:39 | 55.39561 | 37.90428 | 548 ft | 7 kts | 239° |
| 2026-05-05 16:39 | 55.39547 | 37.90337 | 542 ft | 8 kts | 274° |
| 2026-05-05 16:40 | 55.39576 | 37.90259 | 542 ft | 8 kts | 323° |
| 2026-05-05 16:40 | 55.39587 | 37.90246 | 542 ft | 6 kts | 326° |
| 2026-05-05 16:40 | 55.39829 | 37.89957 | 548 ft | 79 kts | 326° |
| 2026-05-05 16:40 | 55.40465 | 37.89192 | 564 ft | 140 kts | 326° |
| 2026-05-05 16:41 | 55.41373 | 37.88081 | 724 ft | 173 kts | 323° |
| 2026-05-05 16:41 | 55.42333 | 37.86671 | 1254 ft | 188 kts | 313° |
| 2026-05-05 16:41 | 55.43231 | 37.84785 | 1643 ft | 210 kts | 308° |
| 2026-05-05 16:41 | 55.44132 | 37.82722 | 2322 ft | 216 kts | 305° |
| 2026-05-05 16:42 | 55.45022 | 37.80480 | 2735 ft | 231 kts | 302° |
| 2026-05-05 16:42 | 55.45864 | 37.78031 | 3189 ft | 240 kts | 289° |
| 2026-05-05 16:42 | 55.45963 | 37.75184 | 3913 ft | 236 kts | 250° |
| 2026-05-05 16:42 | 55.45087 | 37.72734 | 4598 ft | 240 kts | 232° |
| 2026-05-05 16:43 | 55.44054 | 37.70404 | 5291 ft | 242 kts | 233° |
| 2026-05-05 16:43 | 55.42752 | 37.68536 | 5970 ft | 248 kts | 201° |
| 2026-05-05 16:43 | 55.41039 | 37.68133 | 6666 ft | 255 kts | 176° |
| 2026-05-05 16:43 | 55.39320 | 37.69078 | 7234 ft | 266 kts | 153° |
| 2026-05-05 16:44 | 55.37748 | 37.70860 | 7867 ft | 271 kts | 148° |
| 2026-05-05 16:44 | 55.36194 | 37.72780 | 8527 ft | 274 kts | 147° |
| 2026-05-05 16:44 | 55.34626 | 37.74708 | 9210 ft | 276 kts | 147° |
| 2026-05-05 16:44 | 55.33045 | 37.76648 | 9860 ft | 279 kts | 148° |
| 2026-05-05 16:45 | 55.31434 | 37.78618 | 10362 ft | 288 kts | 147° |
| 2026-05-05 16:45 | 55.29750 | 37.80668 | 10758 ft | 300 kts | 147° |
| 2026-05-05 16:45 | 55.28025 | 37.82760 | 11376 ft | 303 kts | 148° |
| 2026-05-05 16:45 | 55.26132 | 37.84327 | 11977 ft | 302 kts | 167° |
| 2026-05-05 16:46 | 55.24089 | 37.85192 | 12624 ft | 303 kts | 169° |
| 2026-05-05 16:46 | 55.22025 | 37.86048 | 13227 ft | 307 kts | 169° |
| 2026-05-05 16:46 | 55.19944 | 37.86931 | 13833 ft | 309 kts | 168° |
| 2026-05-05 16:46 | 55.17849 | 37.87837 | 14429 ft | 312 kts | 168° |
| 2026-05-05 16:47 | 55.15734 | 37.88767 | 15006 ft | 314 kts | 168° |
| 2026-05-05 16:47 | 55.13604 | 37.89710 | 15582 ft | 317 kts | 168° |
| 2026-05-05 16:47 | 55.11458 | 37.90660 | 16137 ft | 320 kts | 168° |
| 2026-05-05 16:47 | 55.09260 | 37.91017 | 16632 ft | 319 kts | 188° |
| 2026-05-05 16:48 | 55.07064 | 37.90467 | 17204 ft | 319 kts | 190° |
| 2026-05-05 16:48 | 55.04855 | 37.89929 | 17733 ft | 322 kts | 189° |
| 2026-05-05 16:48 | 55.02616 | 37.89511 | 18231 ft | 327 kts | 180° |
| 2026-05-05 16:48 | 55.00390 | 37.90403 | 18678 ft | 335 kts | 154° |
| 2026-05-05 16:49 | 54.98505 | 37.92922 | 18832 ft | 354 kts | 130° |
| 2026-05-05 16:49 | 54.97058 | 37.96486 | 19041 ft | 366 kts | 124° |
| 2026-05-05 16:49 | 54.95659 | 38.00235 | 19437 ft | 372 kts | 124° |
| 2026-05-05 16:49 | 54.94250 | 38.04016 | 19959 ft | 373 kts | 124° |
| 2026-05-05 16:50 | 54.92816 | 38.07786 | 20489 ft | 375 kts | 124° |
| 2026-05-05 16:50 | 54.91358 | 38.11562 | 20975 ft | 377 kts | 125° |
| 2026-05-05 16:50 | 54.89899 | 38.15370 | 21440 ft | 380 kts | 121° |
| 2026-05-05 16:50 | 54.88751 | 38.19526 | 21891 ft | 383 kts | 111° |
| 2026-05-05 16:51 | 54.87838 | 38.23895 | 22349 ft | 386 kts | 110° |
| 2026-05-05 16:51 | 54.86939 | 38.28242 | 22785 ft | 389 kts | 111° |
| 2026-05-05 16:51 | 54.85964 | 38.32701 | 23215 ft | 391 kts | 111° |
| 2026-05-05 16:51 | 54.84959 | 38.37105 | 23640 ft | 394 kts | 114° |
| 2026-05-05 16:52 | 54.83721 | 38.41354 | 24050 ft | 396 kts | 120° |
| 2026-05-05 16:52 | 54.82348 | 38.45430 | 24467 ft | 398 kts | 121° |
| 2026-05-05 16:52 | 54.80912 | 38.49620 | 24872 ft | 400 kts | 121° |
| 2026-05-05 16:52 | 54.79516 | 38.53805 | 25248 ft | 403 kts | 120° |
| 2026-05-05 16:53 | 54.78133 | 38.58040 | 25623 ft | 405 kts | 120° |
| 2026-05-05 16:53 | 54.76718 | 38.62187 | 25999 ft | 406 kts | 128° |
| 2026-05-05 16:53 | 54.74695 | 38.65586 | 26188 ft | 410 kts | 148° |
| 2026-05-05 16:53 | 54.72238 | 38.68164 | 26298 ft | 417 kts | 151° |
| 2026-05-05 16:54 | 54.69696 | 38.70705 | 26374 ft | 427 kts | 151° |
| 2026-05-05 16:54 | 54.67101 | 38.73318 | 26455 ft | 436 kts | 150° |
| 2026-05-05 16:54 | 54.64465 | 38.76026 | 26531 ft | 445 kts | 150° |
| 2026-05-05 16:54 | 54.61785 | 38.78807 | 26607 ft | 454 kts | 150° |
| 2026-05-05 16:55 | 54.59056 | 38.81643 | 26661 ft | 462 kts | 150° |
| 2026-05-05 16:55 | 54.56284 | 38.84516 | 26733 ft | 469 kts | 150° |
| 2026-05-05 16:55 | 54.53463 | 38.87431 | 26837 ft | 475 kts | 150° |
| 2026-05-05 16:55 | 54.50617 | 38.90368 | 27027 ft | 479 kts | 150° |
| 2026-05-05 16:56 | 54.47759 | 38.93311 | 27354 ft | 479 kts | 150° |
| 2026-05-05 16:56 | 54.44909 | 38.96241 | 27800 ft | 476 kts | 150° |
| 2026-05-05 16:56 | 54.42076 | 38.99153 | 28245 ft | 473 kts | 149° |
| 2026-05-05 16:56 | 54.39476 | 39.02593 | 28571 ft | 475 kts | 133° |
| 2026-05-05 16:57 | 54.37563 | 39.07202 | 28903 ft | 476 kts | 117° |
| 2026-05-05 16:57 | 54.36295 | 39.12435 | 29279 ft | 475 kts | 111° |
| 2026-05-05 16:57 | 54.35136 | 39.17730 | 29640 ft | 474 kts | 111° |
| 2026-05-05 16:57 | 54.33936 | 39.22988 | 29975 ft | 473 kts | 112° |
| 2026-05-05 16:58 | 54.32697 | 39.28202 | 30332 ft | 472 kts | 112° |
| 2026-05-05 16:58 | 54.31443 | 39.33384 | 30695 ft | 470 kts | 113° |
| 2026-05-05 16:58 | 54.30186 | 39.38546 | 31028 ft | 469 kts | 113° |
| 2026-05-05 16:58 | 54.28930 | 39.43688 | 31336 ft | 468 kts | 113° |
| 2026-05-05 16:59 | 54.27676 | 39.48821 | 31627 ft | 467 kts | 113° |
| 2026-05-05 16:59 | 54.26423 | 39.53945 | 31921 ft | 466 kts | 113° |
| 2026-05-05 16:59 | 54.25173 | 39.59050 | 32236 ft | 465 kts | 113° |
| 2026-05-05 16:59 | 54.23925 | 39.64141 | 32539 ft | 463 kts | 113° |
| 2026-05-05 17:00 | 54.22678 | 39.69216 | 32809 ft | 462 kts | 113° |
| 2026-05-05 17:00 | 54.21432 | 39.74275 | 33053 ft | 462 kts | 112° |
| 2026-05-05 17:00 | 54.20184 | 39.79334 | 33303 ft | 461 kts | 112° |
| 2026-05-05 17:00 | 54.19360 | 39.82668 | 33485 ft | 460 kts | 112° |
| 2026-05-05 17:01 | 54.18113 | 39.87702 | 33750 ft | 459 kts | 113° |
| 2026-05-05 17:01 | 54.16866 | 39.92723 | 33982 ft | 459 kts | 113° |
| 2026-05-05 17:01 | 54.15619 | 39.97732 | 34184 ft | 459 kts | 113° |
| 2026-05-05 17:01 | 54.13966 | 40.04359 | 34450 ft | 458 kts | 113° |
| 2026-05-05 17:02 | 54.12717 | 40.09353 | 34642 ft | 458 kts | 113° |
| 2026-05-05 17:02 | 54.11876 | 40.12733 | 34749 ft | 459 kts | 111° |
| 2026-05-05 17:02 | 54.10819 | 40.17866 | 34857 ft | 460 kts | 107° |
| 2026-05-05 17:02 | 54.09908 | 40.23088 | 34862 ft | 461 kts | 105° |
| 2026-05-05 17:03 | 54.08175 | 40.33573 | 34876 ft | 459 kts | 105° |
| 2026-05-05 17:03 | 54.06400 | 40.43995 | 34880 ft | 458 kts | 106° |
| 2026-05-05 17:04 | 54.04580 | 40.54370 | 34879 ft | 457 kts | 107° |
| 2026-05-05 17:04 | 54.02754 | 40.64655 | 34879 ft | 458 kts | 107° |
| 2026-05-05 17:05 | 54.00904 | 40.75026 | 34881 ft | 458 kts | 107° |
| 2026-05-05 17:05 | 53.99043 | 40.85405 | 34884 ft | 459 kts | 107° |
| 2026-05-05 17:06 | 53.97173 | 40.95778 | 34885 ft | 459 kts | 107° |
| 2026-05-05 17:06 | 53.95301 | 41.06147 | 34879 ft | 459 kts | 106° |
| 2026-05-05 17:07 | 53.93588 | 41.16573 | 34882 ft | 458 kts | 105° |
| 2026-05-05 17:07 | 53.91923 | 41.27003 | 34876 ft | 458 kts | 105° |
| 2026-05-05 17:08 | 53.90228 | 41.37403 | 34878 ft | 457 kts | 105° |
| 2026-05-05 17:08 | 53.88512 | 41.47767 | 34879 ft | 456 kts | 105° |
| 2026-05-05 17:09 | 53.86788 | 41.58110 | 34880 ft | 456 kts | 106° |
| 2026-05-05 17:09 | 53.85060 | 41.68425 | 34879 ft | 455 kts | 106° |
| 2026-05-05 17:10 | 53.83321 | 41.78728 | 34879 ft | 455 kts | 106° |
| 2026-05-05 17:10 | 53.81557 | 41.89007 | 34879 ft | 455 kts | 106° |
| 2026-05-05 17:11 | 53.79781 | 41.99278 | 34882 ft | 455 kts | 106° |
| 2026-05-05 17:11 | 53.77995 | 42.09554 | 34879 ft | 456 kts | 106° |
| 2026-05-05 17:12 | 53.76197 | 42.19845 | 34884 ft | 457 kts | 107° |
| 2026-05-05 17:12 | 53.74388 | 42.30148 | 34871 ft | 458 kts | 107° |
| 2026-05-05 17:13 | 53.72564 | 42.40463 | 34871 ft | 458 kts | 107° |
| 2026-05-05 17:13 | 53.70732 | 42.50772 | 34890 ft | 459 kts | 107° |
| 2026-05-05 17:14 | 53.68896 | 42.61063 | 34887 ft | 458 kts | 107° |
| 2026-05-05 17:14 | 53.67080 | 42.71273 | 34888 ft | 457 kts | 105° |
| 2026-05-05 17:15 | 53.65450 | 42.81643 | 34888 ft | 458 kts | 104° |
| 2026-05-05 17:15 | 53.63863 | 42.92026 | 34890 ft | 458 kts | 104° |
| 2026-05-05 17:16 | 53.62242 | 43.02392 | 34892 ft | 457 kts | 105° |
| 2026-05-05 17:16 | 53.60594 | 43.12731 | 34903 ft | 457 kts | 105° |
| 2026-05-05 17:17 | 53.58933 | 43.23065 | 34909 ft | 457 kts | 105° |
| 2026-05-05 17:17 | 53.57263 | 43.33395 | 34907 ft | 458 kts | 105° |
| 2026-05-05 17:18 | 53.55582 | 43.43731 | 34908 ft | 458 kts | 105° |
| 2026-05-05 17:18 | 53.53890 | 43.54074 | 34908 ft | 459 kts | 105° |
| 2026-05-05 17:19 | 53.52186 | 43.64428 | 34907 ft | 460 kts | 105° |
| 2026-05-05 17:19 | 53.50471 | 43.74783 | 34909 ft | 461 kts | 105° |
| 2026-05-05 17:20 | 53.48745 | 43.85153 | 34908 ft | 461 kts | 105° |
| 2026-05-05 17:20 | 53.47005 | 43.95527 | 34906 ft | 462 kts | 105° |
| 2026-05-05 17:21 | 53.45250 | 44.05899 | 34909 ft | 462 kts | 105° |
| 2026-05-05 17:22 | 53.42609 | 44.21390 | 34909 ft | 462 kts | 105° |
| 2026-05-05 17:22 | 53.40831 | 44.31747 | 34907 ft | 463 kts | 106° |
| 2026-05-05 17:23 | 53.39044 | 44.42095 | 34908 ft | 462 kts | 106° |
| 2026-05-05 17:23 | 53.37254 | 44.52408 | 34913 ft | 461 kts | 106° |
| 2026-05-05 17:24 | 53.35469 | 44.62687 | 34916 ft | 459 kts | 106° |
| 2026-05-05 17:24 | 53.33695 | 44.72936 | 34915 ft | 458 kts | 106° |
| 2026-05-05 17:25 | 53.31918 | 44.83137 | 34916 ft | 456 kts | 106° |
| 2026-05-05 17:25 | 53.30133 | 44.93302 | 34916 ft | 455 kts | 106° |
| 2026-05-05 17:26 | 53.28344 | 45.03445 | 34919 ft | 455 kts | 106° |
| 2026-05-05 17:26 | 53.26408 | 45.13422 | 34916 ft | 454 kts | 110° |
| 2026-05-05 17:27 | 53.24214 | 45.23321 | 34918 ft | 455 kts | 110° |
| 2026-05-05 17:27 | 53.22013 | 45.33215 | 34916 ft | 455 kts | 110° |
| 2026-05-05 17:28 | 53.19832 | 45.43113 | 34919 ft | 455 kts | 110° |
| 2026-05-05 17:28 | 53.17652 | 45.53013 | 34917 ft | 455 kts | 110° |
| 2026-05-05 17:29 | 53.15468 | 45.62902 | 34916 ft | 455 kts | 110° |
| 2026-05-05 17:29 | 53.13273 | 45.72778 | 34918 ft | 454 kts | 110° |
| 2026-05-05 17:30 | 53.11071 | 45.82642 | 34929 ft | 455 kts | 110° |
| 2026-05-05 17:30 | 53.08879 | 45.92511 | 34923 ft | 455 kts | 110° |
| 2026-05-05 17:31 | 53.06689 | 46.02391 | 34928 ft | 455 kts | 110° |
| 2026-05-05 17:31 | 53.04494 | 46.12249 | 34926 ft | 455 kts | 110° |
| 2026-05-05 17:32 | 53.02283 | 46.22106 | 34927 ft | 455 kts | 110° |
| 2026-05-05 17:32 | 53.00063 | 46.31945 | 34927 ft | 455 kts | 110° |
| 2026-05-05 17:33 | 52.97839 | 46.41780 | 34923 ft | 455 kts | 110° |
| 2026-05-05 17:33 | 52.95604 | 46.51586 | 34926 ft | 455 kts | 110° |
| 2026-05-05 17:34 | 52.93351 | 46.61374 | 34925 ft | 454 kts | 110° |
| 2026-05-05 17:34 | 52.91093 | 46.71145 | 34930 ft | 454 kts | 111° |
| 2026-05-05 17:35 | 52.88827 | 46.80909 | 34924 ft | 454 kts | 111° |
| 2026-05-05 17:35 | 52.86553 | 46.90660 | 34926 ft | 454 kts | 111° |
| 2026-05-05 17:36 | 52.84272 | 47.00401 | 34927 ft | 454 kts | 111° |
| 2026-05-05 17:36 | 52.81983 | 47.10133 | 34925 ft | 454 kts | 111° |
| 2026-05-05 17:37 | 52.79839 | 47.19866 | 34925 ft | 454 kts | 108° |
| 2026-05-05 17:37 | 52.77784 | 47.29802 | 34923 ft | 455 kts | 108° |
| 2026-05-05 17:38 | 52.75717 | 47.39601 | 34928 ft | 455 kts | 109° |
| 2026-05-05 17:38 | 52.73606 | 47.49456 | 34925 ft | 455 kts | 109° |
| 2026-05-05 17:39 | 52.71486 | 47.59300 | 34928 ft | 456 kts | 109° |
| 2026-05-05 17:39 | 52.69357 | 47.69141 | 34925 ft | 456 kts | 109° |
| 2026-05-05 17:40 | 52.67216 | 47.78981 | 34930 ft | 456 kts | 109° |
| 2026-05-05 17:40 | 52.65069 | 47.88808 | 34925 ft | 456 kts | 109° |
| 2026-05-05 17:41 | 52.62915 | 47.98622 | 34925 ft | 456 kts | 109° |
| 2026-05-05 17:41 | 52.60754 | 48.08419 | 34925 ft | 455 kts | 109° |
| 2026-05-05 17:42 | 52.58580 | 48.18203 | 34918 ft | 456 kts | 110° |
| 2026-05-05 17:42 | 52.56392 | 48.27982 | 34919 ft | 457 kts | 110° |
| 2026-05-05 17:43 | 52.54190 | 48.37771 | 34929 ft | 456 kts | 110° |
| 2026-05-05 17:43 | 52.51983 | 48.47547 | 34924 ft | 457 kts | 110° |
| 2026-05-05 17:44 | 52.49768 | 48.57316 | 34925 ft | 457 kts | 110° |
| 2026-05-05 17:44 | 52.47560 | 48.67006 | 34943 ft | 456 kts | 110° |
| 2026-05-05 17:45 | 52.45332 | 48.76740 | 34945 ft | 456 kts | 110° |
| 2026-05-05 17:45 | 52.43094 | 48.86466 | 34949 ft | 456 kts | 110° |
| 2026-05-05 17:46 | 52.40851 | 48.96183 | 34942 ft | 456 kts | 110° |
| 2026-05-05 17:46 | 52.38600 | 49.05882 | 34947 ft | 456 kts | 110° |
| 2026-05-05 17:47 | 52.36342 | 49.15576 | 34954 ft | 456 kts | 110° |
| 2026-05-05 17:47 | 52.34077 | 49.25267 | 34954 ft | 456 kts | 110° |
| 2026-05-05 17:48 | 52.31806 | 49.34951 | 34952 ft | 456 kts | 110° |
| 2026-05-05 17:48 | 52.29525 | 49.44629 | 34955 ft | 457 kts | 111° |
| 2026-05-05 17:49 | 52.27227 | 49.54316 | 34956 ft | 458 kts | 111° |
| 2026-05-05 17:49 | 52.24917 | 49.63997 | 34952 ft | 458 kts | 111° |
| 2026-05-05 17:50 | 52.22598 | 49.73675 | 34953 ft | 458 kts | 111° |
| 2026-05-05 17:50 | 52.20666 | 49.81713 | 34953 ft | 458 kts | 111° |
| 2026-05-05 17:51 | 52.18332 | 49.91379 | 34955 ft | 458 kts | 111° |
| 2026-05-05 17:51 | 52.15608 | 50.02603 | 34953 ft | 458 kts | 111° |
| 2026-05-05 17:52 | 52.13257 | 50.12244 | 34953 ft | 458 kts | 111° |
| 2026-05-05 17:52 | 52.11282 | 50.20310 | 34953 ft | 458 kts | 111° |
| 2026-05-05 17:53 | 52.08934 | 50.29865 | 34950 ft | 458 kts | 111° |
| 2026-05-05 17:53 | 52.06548 | 50.39531 | 34955 ft | 458 kts | 111° |
| 2026-05-05 17:54 | 52.04171 | 50.49118 | 34950 ft | 458 kts | 111° |
| 2026-05-05 17:54 | 52.01783 | 50.58705 | 34952 ft | 458 kts | 111° |
| 2026-05-05 17:55 | 51.99386 | 50.68288 | 34944 ft | 458 kts | 112° |
| 2026-05-05 17:55 | 51.96979 | 50.77867 | 34948 ft | 459 kts | 112° |
| 2026-05-05 17:56 | 51.94564 | 50.87451 | 34947 ft | 459 kts | 112° |
| 2026-05-05 17:56 | 51.92091 | 50.96994 | 34955 ft | 459 kts | 113° |
| 2026-05-05 17:57 | 51.89603 | 51.06445 | 34962 ft | 459 kts | 113° |
| 2026-05-05 17:57 | 51.87092 | 51.15960 | 34964 ft | 460 kts | 113° |
| 2026-05-05 17:58 | 51.84574 | 51.25489 | 34963 ft | 461 kts | 113° |
| 2026-05-05 17:58 | 51.82045 | 51.35027 | 34964 ft | 462 kts | 113° |
| 2026-05-05 17:59 | 51.79504 | 51.44567 | 34963 ft | 463 kts | 114° |
| 2026-05-05 17:59 | 51.76949 | 51.54118 | 34962 ft | 464 kts | 114° |
| 2026-05-05 18:00 | 51.74383 | 51.63670 | 34964 ft | 464 kts | 114° |
| 2026-05-05 18:00 | 51.71808 | 51.73222 | 34964 ft | 465 kts | 114° |
| 2026-05-05 18:01 | 51.69202 | 51.82761 | 34958 ft | 465 kts | 117° |
| 2026-05-05 18:01 | 51.67472 | 51.87132 | 34960 ft | 463 kts | 130° |
| 2026-05-05 18:01 | 51.65220 | 51.90814 | 34967 ft | 461 kts | 141° |
| 2026-05-05 18:01 | 51.62571 | 51.93709 | 34961 ft | 460 kts | 152° |
| 2026-05-05 18:02 | 51.59758 | 51.96141 | 34973 ft | 460 kts | 153° |
| 2026-05-05 18:02 | 51.54103 | 52.00969 | 34962 ft | 460 kts | 152° |
| 2026-05-05 18:03 | 51.48461 | 52.05847 | 34961 ft | 460 kts | 152° |
| 2026-05-05 18:03 | 51.42835 | 52.10755 | 34961 ft | 461 kts | 152° |
| 2026-05-05 18:04 | 51.37204 | 52.15669 | 34964 ft | 461 kts | 152° |
| 2026-05-05 18:04 | 51.31572 | 52.20569 | 34964 ft | 461 kts | 152° |
| 2026-05-05 18:05 | 51.25933 | 52.25461 | 34964 ft | 462 kts | 152° |
| 2026-05-05 18:05 | 51.20291 | 52.30341 | 34963 ft | 461 kts | 152° |
| 2026-05-05 18:06 | 51.14650 | 52.35203 | 34964 ft | 461 kts | 152° |
| 2026-05-05 18:06 | 51.09008 | 52.40054 | 34963 ft | 461 kts | 152° |
| 2026-05-05 18:07 | 51.03373 | 52.44887 | 34965 ft | 460 kts | 152° |
| 2026-05-05 18:07 | 50.97745 | 52.49699 | 34963 ft | 459 kts | 152° |
| 2026-05-05 18:08 | 50.92130 | 52.54486 | 34959 ft | 458 kts | 152° |
| 2026-05-05 18:08 | 50.86259 | 52.58167 | 34968 ft | 454 kts | 169° |
| 2026-05-05 18:09 | 50.80043 | 52.58772 | 34973 ft | 451 kts | 183° |
| 2026-05-05 18:09 | 50.73783 | 52.58198 | 34964 ft | 450 kts | 184° |
| 2026-05-05 18:10 | 50.67525 | 52.57639 | 34962 ft | 450 kts | 183° |
| 2026-05-05 18:10 | 50.61268 | 52.57132 | 34957 ft | 451 kts | 183° |
| 2026-05-05 18:11 | 50.54998 | 52.56644 | 34953 ft | 451 kts | 183° |
| 2026-05-05 18:11 | 50.48724 | 52.56162 | 34955 ft | 452 kts | 183° |
| 2026-05-05 18:12 | 50.42446 | 52.55680 | 34956 ft | 452 kts | 183° |
| 2026-05-05 18:12 | 50.36166 | 52.55200 | 34951 ft | 452 kts | 183° |
| 2026-05-05 18:13 | 50.29881 | 52.54721 | 34952 ft | 452 kts | 183° |
| 2026-05-05 18:13 | 50.23596 | 52.54244 | 34955 ft | 452 kts | 183° |
| 2026-05-05 18:14 | 50.17353 | 52.53768 | 34946 ft | 452 kts | 183° |
| 2026-05-05 18:14 | 50.11066 | 52.53290 | 34948 ft | 452 kts | 183° |
| 2026-05-05 18:15 | 50.04786 | 52.52813 | 34944 ft | 451 kts | 183° |
| 2026-05-05 18:15 | 49.98516 | 52.52341 | 34946 ft | 451 kts | 183° |
| 2026-05-05 18:16 | 49.92206 | 52.51868 | 34941 ft | 451 kts | 183° |
| 2026-05-05 18:16 | 49.85980 | 52.51401 | 34932 ft | 451 kts | 183° |
| 2026-05-05 18:17 | 49.79680 | 52.50929 | 34931 ft | 450 kts | 183° |
| 2026-05-05 18:17 | 49.73425 | 52.50462 | 34924 ft | 450 kts | 183° |
| 2026-05-05 18:18 | 49.67223 | 52.49998 | 34925 ft | 449 kts | 183° |
| 2026-05-05 18:18 | 49.60989 | 52.49537 | 34915 ft | 448 kts | 183° |
| 2026-05-05 18:19 | 49.54756 | 52.49077 | 34917 ft | 448 kts | 183° |
| 2026-05-05 18:19 | 49.48528 | 52.48616 | 34910 ft | 448 kts | 183° |
| 2026-05-05 18:20 | 49.42305 | 52.48157 | 34910 ft | 448 kts | 183° |
| 2026-05-05 18:20 | 49.36078 | 52.47697 | 34901 ft | 448 kts | 183° |
| 2026-05-05 18:21 | 49.29857 | 52.47241 | 34897 ft | 447 kts | 183° |
| 2026-05-05 18:21 | 49.23638 | 52.46786 | 34889 ft | 447 kts | 183° |
| 2026-05-05 18:22 | 49.17425 | 52.46333 | 34888 ft | 447 kts | 183° |
| 2026-05-05 18:22 | 49.11217 | 52.45880 | 34878 ft | 446 kts | 183° |
| 2026-05-05 18:23 | 49.05014 | 52.45427 | 34875 ft | 446 kts | 183° |
| 2026-05-05 18:23 | 48.98817 | 52.45004 | 34870 ft | 446 kts | 181° |
| 2026-05-05 18:24 | 48.92622 | 52.45446 | 34864 ft | 446 kts | 176° |
| 2026-05-05 18:24 | 48.86483 | 52.46159 | 34857 ft | 445 kts | 176° |
| 2026-05-05 18:25 | 48.80304 | 52.46832 | 34853 ft | 445 kts | 177° |
| 2026-05-05 18:25 | 48.74131 | 52.47451 | 34839 ft | 445 kts | 177° |
| 2026-05-05 18:26 | 48.67957 | 52.48048 | 34840 ft | 444 kts | 177° |
| 2026-05-05 18:26 | 48.61786 | 52.48638 | 34832 ft | 444 kts | 177° |
| 2026-05-05 18:27 | 48.55620 | 52.49231 | 34829 ft | 444 kts | 177° |
| 2026-05-05 18:27 | 48.49459 | 52.49822 | 34816 ft | 444 kts | 177° |
| 2026-05-05 18:28 | 48.40213 | 52.50702 | 34812 ft | 444 kts | 177° |
| 2026-05-05 18:28 | 48.34051 | 52.51288 | 34806 ft | 443 kts | 177° |
| 2026-05-05 18:29 | 48.27890 | 52.51874 | 34805 ft | 444 kts | 177° |
| 2026-05-05 18:29 | 48.21724 | 52.52457 | 34794 ft | 444 kts | 177° |
| 2026-05-05 18:30 | 48.15561 | 52.53037 | 34795 ft | 444 kts | 177° |
| 2026-05-05 18:30 | 48.09432 | 52.53614 | 34793 ft | 444 kts | 177° |
| 2026-05-05 18:31 | 48.03258 | 52.54193 | 34788 ft | 444 kts | 177° |
| 2026-05-05 18:31 | 47.97088 | 52.54773 | 34775 ft | 444 kts | 177° |
| 2026-05-05 18:32 | 47.90927 | 52.55351 | 34777 ft | 443 kts | 178° |
| 2026-05-05 18:32 | 47.84772 | 52.55923 | 34777 ft | 443 kts | 178° |
| 2026-05-05 18:33 | 47.78621 | 52.56498 | 34765 ft | 443 kts | 178° |
| 2026-05-05 18:33 | 47.72476 | 52.57065 | 34768 ft | 442 kts | 178° |
| 2026-05-05 18:34 | 47.66343 | 52.57632 | 34767 ft | 441 kts | 178° |
| 2026-05-05 18:34 | 47.60219 | 52.57692 | 34770 ft | 439 kts | 185° |
| 2026-05-05 18:35 | 47.54133 | 52.56874 | 34757 ft | 439 kts | 186° |
| 2026-05-05 18:35 | 47.48050 | 52.56030 | 34756 ft | 439 kts | 186° |
| 2026-05-05 18:36 | 47.41965 | 52.55234 | 34761 ft | 439 kts | 186° |
| 2026-05-05 18:36 | 47.35875 | 52.54474 | 34760 ft | 439 kts | 186° |
| 2026-05-05 18:37 | 47.29783 | 52.53723 | 34760 ft | 439 kts | 186° |
| 2026-05-05 18:37 | 47.23692 | 52.52968 | 34763 ft | 439 kts | 186° |
| 2026-05-05 18:38 | 47.17596 | 52.52216 | 34752 ft | 440 kts | 186° |
| 2026-05-05 18:38 | 47.11493 | 52.51465 | 34751 ft | 440 kts | 186° |
| 2026-05-05 18:39 | 47.06422 | 52.50842 | 34747 ft | 440 kts | 186° |
| 2026-05-05 18:39 | 46.99333 | 52.49973 | 34752 ft | 440 kts | 186° |
| 2026-05-05 18:40 | 46.93236 | 52.49226 | 34755 ft | 439 kts | 186° |
| 2026-05-05 18:40 | 46.88133 | 52.48602 | 34759 ft | 439 kts | 186° |
| 2026-05-05 18:41 | 46.82047 | 52.47860 | 34758 ft | 439 kts | 186° |
| 2026-05-05 18:41 | 46.76006 | 52.47126 | 34762 ft | 438 kts | 186° |
| 2026-05-05 18:42 | 46.69882 | 52.46381 | 34757 ft | 439 kts | 186° |
| 2026-05-05 18:42 | 46.63844 | 52.45648 | 34758 ft | 439 kts | 186° |
| 2026-05-05 18:43 | 46.57761 | 52.44937 | 34758 ft | 439 kts | 184° |
| 2026-05-05 18:43 | 46.51641 | 52.45224 | 34764 ft | 441 kts | 178° |
| 2026-05-05 18:44 | 46.45515 | 52.45833 | 34769 ft | 441 kts | 178° |
| 2026-05-05 18:44 | 46.39387 | 52.46403 | 34767 ft | 441 kts | 179° |
| 2026-05-05 18:45 | 46.33260 | 52.46923 | 34768 ft | 441 kts | 179° |
| 2026-05-05 18:45 | 46.27138 | 52.47423 | 34776 ft | 440 kts | 179° |
| 2026-05-05 18:46 | 46.21031 | 52.47919 | 34774 ft | 440 kts | 179° |
| 2026-05-05 18:46 | 46.14923 | 52.48415 | 34787 ft | 439 kts | 179° |
| 2026-05-05 18:47 | 46.08814 | 52.48907 | 34785 ft | 440 kts | 179° |
| 2026-05-05 18:47 | 46.02702 | 52.49400 | 34792 ft | 440 kts | 179° |
| 2026-05-05 18:48 | 45.96590 | 52.49894 | 34797 ft | 440 kts | 179° |
| 2026-05-05 18:48 | 45.90477 | 52.50386 | 34801 ft | 440 kts | 179° |
| 2026-05-05 18:49 | 45.84362 | 52.50877 | 34801 ft | 440 kts | 179° |
| 2026-05-05 18:49 | 45.78289 | 52.51365 | 34807 ft | 440 kts | 179° |
| 2026-05-05 18:50 | 45.72183 | 52.51852 | 34806 ft | 439 kts | 179° |
| 2026-05-05 18:50 | 45.66081 | 52.52337 | 34829 ft | 439 kts | 179° |
| 2026-05-05 18:51 | 45.59986 | 52.52821 | 34832 ft | 439 kts | 179° |
| 2026-05-05 18:51 | 45.53894 | 52.53318 | 34831 ft | 439 kts | 178° |
| 2026-05-05 18:52 | 45.47836 | 52.54581 | 34843 ft | 440 kts | 173° |
| 2026-05-05 18:52 | 45.41810 | 52.56138 | 34843 ft | 440 kts | 173° |
| 2026-05-05 18:53 | 45.35785 | 52.57667 | 34851 ft | 440 kts | 173° |
| 2026-05-05 18:53 | 45.29757 | 52.59142 | 34852 ft | 440 kts | 174° |
| 2026-05-05 18:54 | 45.23732 | 52.60590 | 34861 ft | 439 kts | 174° |
| 2026-05-05 18:54 | 45.17713 | 52.62031 | 34865 ft | 438 kts | 174° |
| 2026-05-05 18:55 | 45.11707 | 52.63465 | 34869 ft | 437 kts | 174° |
| 2026-05-05 18:55 | 45.05711 | 52.64895 | 34868 ft | 436 kts | 174° |
| 2026-05-05 18:56 | 44.99728 | 52.66318 | 34880 ft | 436 kts | 174° |
| 2026-05-05 18:56 | 44.93749 | 52.67738 | 34878 ft | 436 kts | 174° |
| 2026-05-05 18:57 | 44.87774 | 52.69155 | 34892 ft | 435 kts | 174° |
| 2026-05-05 18:57 | 44.81852 | 52.70556 | 34889 ft | 435 kts | 174° |
| 2026-05-05 18:58 | 44.75886 | 52.71963 | 34889 ft | 434 kts | 174° |
| 2026-05-05 18:58 | 44.69928 | 52.73366 | 34895 ft | 434 kts | 174° |
| 2026-05-05 18:59 | 44.63972 | 52.74766 | 34900 ft | 434 kts | 174° |
| 2026-05-05 18:59 | 44.58021 | 52.76161 | 34898 ft | 433 kts | 174° |
| 2026-05-05 19:00 | 44.52074 | 52.77553 | 34901 ft | 433 kts | 174° |
| 2026-05-05 19:00 | 44.46138 | 52.78941 | 34907 ft | 432 kts | 174° |
| 2026-05-05 19:01 | 44.40203 | 52.80325 | 34906 ft | 432 kts | 174° |
| 2026-05-05 19:01 | 44.34270 | 52.81705 | 34907 ft | 432 kts | 174° |
| 2026-05-05 19:02 | 44.28343 | 52.83080 | 34909 ft | 432 kts | 174° |
| 2026-05-05 19:02 | 44.22416 | 52.84452 | 34910 ft | 432 kts | 174° |
| 2026-05-05 19:03 | 44.16489 | 52.85823 | 34910 ft | 431 kts | 174° |
| 2026-05-05 19:03 | 44.10566 | 52.87187 | 34914 ft | 431 kts | 174° |
| 2026-05-05 19:04 | 44.04648 | 52.88550 | 34922 ft | 431 kts | 175° |
| 2026-05-05 19:04 | 43.98734 | 52.89912 | 34917 ft | 431 kts | 174° |
| 2026-05-05 19:05 | 43.92814 | 52.91269 | 34920 ft | 431 kts | 174° |
| 2026-05-05 19:05 | 43.86886 | 52.92624 | 34916 ft | 431 kts | 174° |
| 2026-05-05 19:06 | 43.81006 | 52.93968 | 34942 ft | 431 kts | 175° |
| 2026-05-05 19:06 | 43.75085 | 52.95318 | 34937 ft | 431 kts | 174° |
| 2026-05-05 19:07 | 43.69166 | 52.96668 | 34944 ft | 431 kts | 175° |
| 2026-05-05 19:07 | 43.63240 | 52.98013 | 34944 ft | 431 kts | 175° |
| 2026-05-05 19:08 | 43.57317 | 52.99355 | 34938 ft | 431 kts | 174° |
| 2026-05-05 19:08 | 43.51398 | 53.00692 | 34943 ft | 431 kts | 175° |
| 2026-05-05 19:09 | 43.45481 | 53.02027 | 34946 ft | 431 kts | 174° |
| 2026-05-05 19:09 | 43.39567 | 53.03358 | 34941 ft | 431 kts | 174° |
| 2026-05-05 19:10 | 43.33652 | 53.04688 | 34947 ft | 431 kts | 175° |
| 2026-05-05 19:10 | 43.27737 | 53.06015 | 34943 ft | 431 kts | 175° |
| 2026-05-05 19:11 | 43.21816 | 53.07339 | 34947 ft | 431 kts | 175° |
| 2026-05-05 19:11 | 43.15893 | 53.08662 | 34949 ft | 431 kts | 174° |
| 2026-05-05 19:12 | 43.09973 | 53.09985 | 34946 ft | 432 kts | 174° |
| 2026-05-05 19:12 | 43.04044 | 53.11306 | 34950 ft | 432 kts | 174° |
| 2026-05-05 19:13 | 42.98151 | 53.12614 | 34944 ft | 432 kts | 174° |
| 2026-05-05 19:13 | 42.92177 | 53.13937 | 34942 ft | 432 kts | 174° |
| 2026-05-05 19:14 | 42.86280 | 53.15246 | 34947 ft | 432 kts | 174° |
| 2026-05-05 19:14 | 42.80342 | 53.16556 | 34943 ft | 432 kts | 174° |
| 2026-05-05 19:15 | 42.74401 | 53.17864 | 34944 ft | 432 kts | 174° |
| 2026-05-05 19:15 | 42.68462 | 53.19170 | 34945 ft | 432 kts | 174° |
| 2026-05-05 19:16 | 42.62521 | 53.20474 | 34947 ft | 433 kts | 174° |
| 2026-05-05 19:16 | 42.56574 | 53.21778 | 34941 ft | 433 kts | 174° |
| 2026-05-05 19:17 | 42.50626 | 53.23079 | 34947 ft | 433 kts | 174° |
| 2026-05-05 19:17 | 42.44673 | 53.24377 | 34947 ft | 433 kts | 174° |
| 2026-05-05 19:18 | 42.38722 | 53.25672 | 34943 ft | 433 kts | 174° |
| 2026-05-05 19:18 | 42.32771 | 53.26966 | 34946 ft | 433 kts | 174° |
| 2026-05-05 19:19 | 42.26844 | 53.28541 | 34934 ft | 439 kts | 164° |
| 2026-05-05 19:19 | 42.21430 | 53.32481 | 34941 ft | 450 kts | 146° |
| 2026-05-05 19:20 | 42.16828 | 53.38287 | 34945 ft | 454 kts | 140° |
| 2026-05-05 19:20 | 42.12326 | 53.44263 | 34944 ft | 454 kts | 140° |
| 2026-05-05 19:21 | 42.07798 | 53.50201 | 34939 ft | 454 kts | 141° |
| 2026-05-05 19:21 | 42.03248 | 53.56101 | 34947 ft | 454 kts | 141° |
| 2026-05-05 19:22 | 41.98686 | 53.61978 | 34944 ft | 454 kts | 141° |
| 2026-05-05 19:22 | 41.94118 | 53.67847 | 34947 ft | 454 kts | 141° |
| 2026-05-05 19:23 | 41.89550 | 53.73712 | 34940 ft | 454 kts | 141° |
| 2026-05-05 19:23 | 41.85009 | 53.79529 | 34950 ft | 454 kts | 141° |
| 2026-05-05 19:24 | 41.80434 | 53.85375 | 34942 ft | 455 kts | 141° |
| 2026-05-05 19:24 | 41.75847 | 53.91221 | 34945 ft | 455 kts | 141° |
| 2026-05-05 19:25 | 41.71258 | 53.97060 | 34944 ft | 455 kts | 141° |
| 2026-05-05 19:25 | 41.66663 | 54.02899 | 34942 ft | 455 kts | 141° |
| 2026-05-05 19:26 | 41.62066 | 54.08727 | 34945 ft | 456 kts | 141° |
| 2026-05-05 19:26 | 41.57457 | 54.14558 | 34943 ft | 456 kts | 141° |
| 2026-05-05 19:27 | 41.52841 | 54.20383 | 34944 ft | 457 kts | 141° |
| 2026-05-05 19:27 | 41.48220 | 54.26202 | 34938 ft | 457 kts | 141° |
| 2026-05-05 19:28 | 41.43595 | 54.32019 | 34941 ft | 457 kts | 141° |
| 2026-05-05 19:28 | 41.39748 | 54.36847 | 34946 ft | 458 kts | 141° |
| 2026-05-05 19:29 | 41.35111 | 54.42652 | 34951 ft | 458 kts | 141° |
| 2026-05-05 19:29 | 41.30466 | 54.48457 | 34944 ft | 458 kts | 141° |
| 2026-05-05 19:30 | 41.25815 | 54.54257 | 34939 ft | 458 kts | 141° |
| 2026-05-05 19:30 | 41.21164 | 54.60040 | 34945 ft | 458 kts | 141° |
| 2026-05-05 19:31 | 41.16511 | 54.65823 | 34949 ft | 458 kts | 141° |
| 2026-05-05 19:31 | 41.11857 | 54.71594 | 34944 ft | 458 kts | 141° |
| 2026-05-05 19:32 | 41.07193 | 54.77362 | 34944 ft | 459 kts | 141° |
| 2026-05-05 19:32 | 41.02552 | 54.83093 | 34951 ft | 459 kts | 141° |
| 2026-05-05 19:33 | 40.97874 | 54.88859 | 34948 ft | 460 kts | 141° |
| 2026-05-05 19:33 | 40.93182 | 54.94621 | 34950 ft | 461 kts | 141° |
| 2026-05-05 19:34 | 40.88481 | 55.00382 | 34949 ft | 461 kts | 141° |
| 2026-05-05 19:35 | 40.81420 | 55.09009 | 34943 ft | 461 kts | 141° |
| 2026-05-05 19:35 | 40.76713 | 55.14749 | 34942 ft | 461 kts | 141° |
| 2026-05-05 19:36 | 40.72001 | 55.20482 | 34944 ft | 461 kts | 141° |
| 2026-05-05 19:36 | 40.67289 | 55.26205 | 34945 ft | 461 kts | 141° |
| 2026-05-05 19:37 | 40.62565 | 55.31931 | 34947 ft | 462 kts | 141° |
| 2026-05-05 19:37 | 40.57836 | 55.37650 | 34946 ft | 462 kts | 141° |
| 2026-05-05 19:38 | 40.53104 | 55.43361 | 34951 ft | 462 kts | 141° |
| 2026-05-05 19:38 | 40.48365 | 55.49070 | 34951 ft | 462 kts | 141° |
| 2026-05-05 19:39 | 40.43620 | 55.54775 | 34955 ft | 463 kts | 141° |
| 2026-05-05 19:39 | 40.38864 | 55.60479 | 34955 ft | 463 kts | 141° |
| 2026-05-05 19:40 | 40.34099 | 55.66183 | 34956 ft | 464 kts | 141° |
| 2026-05-05 19:40 | 40.29329 | 55.71886 | 34958 ft | 464 kts | 141° |
| 2026-05-05 19:41 | 40.24550 | 55.77595 | 34965 ft | 465 kts | 141° |
| 2026-05-05 19:41 | 40.19786 | 55.83335 | 34965 ft | 466 kts | 141° |
| 2026-05-05 19:42 | 40.15015 | 55.89080 | 34970 ft | 466 kts | 141° |
| 2026-05-05 19:42 | 40.10270 | 55.94773 | 34982 ft | 466 kts | 141° |
| 2026-05-05 19:43 | 40.05487 | 56.00495 | 34979 ft | 466 kts | 141° |
| 2026-05-05 19:43 | 40.00700 | 56.06210 | 34973 ft | 467 kts | 141° |
| 2026-05-05 19:44 | 39.95907 | 56.11923 | 34973 ft | 467 kts | 141° |
| 2026-05-05 19:44 | 39.91105 | 56.17634 | 34970 ft | 467 kts | 141° |
| 2026-05-05 19:45 | 39.86306 | 56.23333 | 34973 ft | 467 kts | 141° |
| 2026-05-05 19:45 | 39.81487 | 56.28989 | 34972 ft | 466 kts | 142° |
| 2026-05-05 19:46 | 39.76657 | 56.34613 | 34975 ft | 466 kts | 142° |
| 2026-05-05 19:46 | 39.71829 | 56.40227 | 34973 ft | 466 kts | 142° |
| 2026-05-05 19:47 | 39.67000 | 56.45829 | 34973 ft | 465 kts | 142° |
| 2026-05-05 19:47 | 39.62171 | 56.51430 | 34982 ft | 466 kts | 142° |
| 2026-05-05 19:48 | 39.57341 | 56.57024 | 34983 ft | 466 kts | 142° |
| 2026-05-05 19:48 | 39.52503 | 56.62616 | 34983 ft | 466 kts | 142° |
| 2026-05-05 19:49 | 39.47655 | 56.68211 | 34978 ft | 467 kts | 142° |
| 2026-05-05 19:49 | 39.42800 | 56.73801 | 34983 ft | 468 kts | 141° |
| 2026-05-05 19:50 | 39.37931 | 56.79399 | 34981 ft | 469 kts | 141° |
| 2026-05-05 19:50 | 39.33068 | 56.85000 | 34979 ft | 469 kts | 141° |
| 2026-05-05 19:51 | 39.28209 | 56.90626 | 34984 ft | 469 kts | 141° |
| 2026-05-05 19:51 | 39.23346 | 56.96248 | 35002 ft | 470 kts | 141° |
| 2026-05-05 19:52 | 39.18468 | 57.01872 | 34997 ft | 471 kts | 141° |
| 2026-05-05 19:52 | 39.13580 | 57.07496 | 34990 ft | 471 kts | 141° |
| 2026-05-05 19:53 | 39.08687 | 57.13112 | 34983 ft | 471 kts | 141° |
| 2026-05-05 19:53 | 39.06232 | 57.15925 | 34735 ft | 476 kts | 141° |
| 2026-05-05 19:53 | 39.03741 | 57.18775 | 34050 ft | 479 kts | 141° |
| 2026-05-05 19:53 | 39.01270 | 57.21601 | 33262 ft | 474 kts | 141° |
| 2026-05-05 19:54 | 38.98819 | 57.24404 | 32477 ft | 470 kts | 141° |
| 2026-05-05 19:54 | 38.96383 | 57.27187 | 31583 ft | 468 kts | 141° |
| 2026-05-05 19:54 | 38.93952 | 57.29961 | 30701 ft | 468 kts | 141° |
| 2026-05-05 19:54 | 38.91511 | 57.32743 | 29809 ft | 470 kts | 141° |
| 2026-05-05 19:55 | 38.89055 | 57.35539 | 28883 ft | 473 kts | 141° |
| 2026-05-05 19:55 | 38.86585 | 57.38349 | 27922 ft | 476 kts | 141° |
| 2026-05-05 19:55 | 38.84103 | 57.41169 | 26911 ft | 478 kts | 140° |
| 2026-05-05 19:55 | 38.81605 | 57.44005 | 25866 ft | 481 kts | 140° |
| 2026-05-05 19:56 | 38.79108 | 57.46837 | 25127 ft | 476 kts | 140° |
| 2026-05-05 19:56 | 38.76639 | 57.49636 | 24370 ft | 471 kts | 140° |
| 2026-05-05 19:56 | 38.74197 | 57.52403 | 23631 ft | 466 kts | 140° |
| 2026-05-05 19:56 | 38.71779 | 57.55139 | 22889 ft | 462 kts | 140° |
| 2026-05-05 19:57 | 38.69384 | 57.57845 | 22165 ft | 457 kts | 140° |
| 2026-05-05 19:57 | 38.67809 | 57.59623 | 21683 ft | 454 kts | 140° |
| 2026-05-05 19:57 | 38.64659 | 57.63177 | 20722 ft | 448 kts | 140° |
| 2026-05-05 19:57 | 38.62361 | 57.65767 | 20014 ft | 444 kts | 140° |
| 2026-05-05 19:58 | 38.60117 | 57.68453 | 19316 ft | 440 kts | 136° |
| 2026-05-05 19:58 | 38.58027 | 57.71292 | 18626 ft | 436 kts | 134° |
| 2026-05-05 19:58 | 38.56016 | 57.74167 | 17933 ft | 432 kts | 133° |
| 2026-05-05 19:58 | 38.54010 | 57.77071 | 17215 ft | 428 kts | 133° |
| 2026-05-05 19:59 | 38.52071 | 57.79860 | 16541 ft | 424 kts | 133° |
| 2026-05-05 19:59 | 38.50109 | 57.82650 | 15851 ft | 420 kts | 134° |
| 2026-05-05 19:59 | 38.48156 | 57.85399 | 15165 ft | 416 kts | 134° |
| 2026-05-05 19:59 | 38.46209 | 57.88117 | 14473 ft | 413 kts | 134° |
| 2026-05-05 20:00 | 38.44276 | 57.90805 | 13786 ft | 410 kts | 134° |
| 2026-05-05 20:00 | 38.42356 | 57.93469 | 13093 ft | 407 kts | 134° |
| 2026-05-05 20:00 | 38.40447 | 57.96113 | 12431 ft | 403 kts | 134° |
| 2026-05-05 20:00 | 38.38590 | 57.98685 | 12245 ft | 387 kts | 134° |
| 2026-05-05 20:01 | 38.36799 | 58.01164 | 12061 ft | 373 kts | 134° |
| 2026-05-05 20:01 | 38.35072 | 58.03550 | 11891 ft | 360 kts | 134° |
| 2026-05-05 20:01 | 38.33405 | 58.05854 | 11733 ft | 347 kts | 134° |
| 2026-05-05 20:01 | 38.31795 | 58.08077 | 11581 ft | 334 kts | 134° |
| 2026-05-05 20:02 | 38.30265 | 58.10188 | 11427 ft | 315 kts | 134° |
| 2026-05-05 20:02 | 38.28823 | 58.12177 | 11361 ft | 295 kts | 134° |
| 2026-05-05 20:02 | 38.27471 | 58.14041 | 11253 ft | 280 kts | 134° |
| 2026-05-05 20:02 | 38.26164 | 58.15842 | 10875 ft | 275 kts | 134° |
| 2026-05-05 20:03 | 38.24877 | 58.17610 | 10501 ft | 270 kts | 134° |
| 2026-05-05 20:03 | 38.23612 | 58.19348 | 10122 ft | 265 kts | 134° |
| 2026-05-05 20:03 | 38.22369 | 58.21057 | 9749 ft | 261 kts | 133° |
| 2026-05-05 20:03 | 38.21146 | 58.22736 | 9380 ft | 257 kts | 133° |
| 2026-05-05 20:04 | 38.19935 | 58.24398 | 9019 ft | 255 kts | 133° |
| 2026-05-05 20:04 | 38.18735 | 58.26044 | 8637 ft | 253 kts | 133° |
| 2026-05-05 20:04 | 38.17543 | 58.27678 | 8262 ft | 251 kts | 133° |
| 2026-05-05 20:04 | 38.16363 | 58.29296 | 7889 ft | 249 kts | 133° |
| 2026-05-05 20:05 | 38.15192 | 58.30902 | 7517 ft | 247 kts | 133° |
| 2026-05-05 20:05 | 38.14029 | 58.32495 | 7136 ft | 245 kts | 133° |
| 2026-05-05 20:05 | 38.12872 | 58.34078 | 6771 ft | 243 kts | 133° |
| 2026-05-05 20:05 | 38.11727 | 58.35646 | 6398 ft | 242 kts | 133° |
| 2026-05-05 20:06 | 38.10584 | 58.37209 | 5998 ft | 241 kts | 133° |
| 2026-05-05 20:06 | 38.09443 | 58.38769 | 5602 ft | 241 kts | 133° |
| 2026-05-05 20:06 | 38.08306 | 58.40322 | 5205 ft | 240 kts | 133° |
| 2026-05-05 20:06 | 38.07170 | 58.41874 | 4812 ft | 239 kts | 133° |
| 2026-05-05 20:07 | 38.06038 | 58.43419 | 4403 ft | 238 kts | 132° |
| 2026-05-05 20:07 | 38.04914 | 58.44953 | 3992 ft | 236 kts | 132° |
| 2026-05-05 20:07 | 38.03799 | 58.46472 | 3599 ft | 234 kts | 132° |
| 2026-05-05 20:07 | 38.02693 | 58.47981 | 3198 ft | 233 kts | 132° |
| 2026-05-05 20:08 | 38.01596 | 58.49477 | 2802 ft | 230 kts | 132° |
| 2026-05-05 20:08 | 38.00530 | 58.50934 | 2724 ft | 220 kts | 133° |
| 2026-05-05 20:08 | 37.99497 | 58.52340 | 2639 ft | 216 kts | 134° |
| 2026-05-05 20:08 | 37.98476 | 58.53729 | 2639 ft | 215 kts | 134° |
| 2026-05-05 20:09 | 37.97463 | 58.55106 | 2667 ft | 209 kts | 134° |
| 2026-05-05 20:09 | 37.96512 | 58.56397 | 2651 ft | 191 kts | 134° |
| 2026-05-05 20:09 | 37.95625 | 58.57546 | 2613 ft | 177 kts | 145° |
| 2026-05-05 20:09 | 37.94485 | 58.58048 | 2616 ft | 177 kts | 178° |
| 2026-05-05 20:10 | 37.93298 | 58.57639 | 2623 ft | 177 kts | 206° |
| 2026-05-05 20:10 | 37.92366 | 58.56638 | 2624 ft | 179 kts | 230° |
| 2026-05-05 20:10 | 37.91722 | 58.55306 | 2646 ft | 181 kts | 238° |
| 2026-05-05 20:10 | 37.91121 | 58.53894 | 2658 ft | 177 kts | 239° |
| 2026-05-05 20:11 | 37.90825 | 58.52415 | 2591 ft | 178 kts | 278° |
| 2026-05-05 20:11 | 37.91317 | 58.51003 | 2650 ft | 181 kts | 297° |
| 2026-05-05 20:11 | 37.91936 | 58.49603 | 2657 ft | 181 kts | 297° |
| 2026-05-05 20:11 | 37.92519 | 58.48257 | 2655 ft | 169 kts | 296° |
| 2026-05-05 20:12 | 37.93085 | 58.46945 | 2528 ft | 169 kts | 297° |
| 2026-05-05 20:12 | 37.93661 | 58.45664 | 2316 ft | 164 kts | 297° |
| 2026-05-05 20:12 | 37.94197 | 58.44421 | 2050 ft | 157 kts | 295° |
| 2026-05-05 20:12 | 37.94712 | 58.43222 | 1747 ft | 153 kts | 297° |
| 2026-05-05 20:13 | 37.95218 | 58.42053 | 1534 ft | 151 kts | 298° |
| 2026-05-05 20:13 | 37.95742 | 58.40899 | 1341 ft | 152 kts | 300° |
| 2026-05-05 20:13 | 37.96253 | 58.39726 | 1145 ft | 152 kts | 299° |
| 2026-05-05 20:13 | 37.96766 | 58.38558 | 941 ft | 153 kts | 300° |
| 2026-05-05 20:14 | 37.97295 | 58.37399 | 726 ft | 151 kts | 300° |
| 2026-05-05 20:14 | 37.97756 | 58.36362 | 676 ft | 109 kts | 299° |
| 2026-05-05 20:14 | 37.98024 | 58.35764 | 677 ft | 47 kts | 299° |
| 2026-05-05 20:14 | 37.98085 | 58.35627 | 677 ft | 0 kts | 299° |
| 2026-05-05 20:15 | 37.98087 | 58.35624 | 677 ft | 3 kts | 299° |
| 2026-05-05 20:15 | 37.98120 | 58.35548 | 674 ft | 16 kts | 299° |
| 2026-05-05 20:15 | 37.98197 | 58.35385 | 674 ft | 24 kts | 310° |
| 2026-05-05 20:15 | 37.98308 | 58.35263 | 674 ft | 18 kts | 325° |
| 2026-05-05 20:16 | 37.98375 | 58.35209 | 677 ft | 15 kts | 328° |
| 2026-05-05 20:16 | 37.98400 | 58.35190 | 675 ft | 0 kts | 328° |
| 2026-05-05 20:16 | 37.98406 | 58.35185 | 677 ft | 4 kts | 327° |
| 2026-05-05 20:16 | 37.98442 | 58.35172 | 677 ft | 6 kts | 359° |
| 2026-05-05 20:17 | 37.98486 | 58.35180 | 677 ft | 7 kts | 22° |
| 2026-05-05 20:17 | 37.98504 | 58.35229 | 677 ft | 7 kts | 98° |
| 2026-05-05 20:17 | 37.98481 | 58.35280 | 677 ft | 7 kts | 120° |
| 2026-05-05 20:17 | 37.98454 | 58.35339 | 676 ft | 9 kts | 120° |
| 2026-05-05 20:18 | 37.98420 | 58.35417 | 674 ft | 11 kts | 118° |
| 2026-05-05 20:18 | 37.98379 | 58.35515 | 675 ft | 13 kts | 118° |
| 2026-05-05 20:18 | 37.98334 | 58.35613 | 673 ft | 13 kts | 120° |
| 2026-05-05 20:18 | 37.98291 | 58.35709 | 677 ft | 12 kts | 120° |
| 2026-05-05 20:19 | 37.98248 | 58.35803 | 673 ft | 12 kts | 120° |
| 2026-05-05 20:19 | 37.98207 | 58.35895 | 677 ft | 13 kts | 119° |
| 2026-05-05 20:19 | 37.98163 | 58.35994 | 674 ft | 13 kts | 119° |
| 2026-05-05 20:19 | 37.98119 | 58.36092 | 675 ft | 13 kts | 119° |
| 2026-05-05 20:20 | 37.98091 | 58.36192 | 677 ft | 12 kts | 82° |
| 2026-05-05 20:20 | 37.98151 | 58.36261 | 674 ft | 12 kts | 29° |
| 2026-05-05 20:20 | 37.98223 | 58.36312 | 677 ft | 12 kts | 30° |
| 2026-05-05 20:20 | 37.98290 | 58.36365 | 677 ft | 11 kts | 42° |
| 2026-05-05 20:21 | 37.98297 | 58.36455 | 677 ft | 11 kts | 104° |
| 2026-05-05 20:21 | 37.98268 | 58.36543 | 677 ft | 11 kts | 118° |
| 2026-05-05 20:21 | 37.98232 | 58.36625 | 675 ft | 10 kts | 118° |
| 2026-05-05 20:21 | 37.98231 | 58.36678 | 677 ft | 6 kts | 36° |
| 2026-05-05 20:22 | 37.98266 | 58.36705 | 677 ft | 6 kts | 30° |
| 2026-05-05 20:22 | 37.98298 | 58.36728 | 677 ft | 5 kts | 29° |
| 2026-05-05 20:22 | 37.98301 | 58.36729 | 677 ft | 0 kts | 29° |